Time;durP1;ratioP1;P1;durP2;ratioP2;P2;SDS_P1;SDS_P2;PMS_P1;PMS_P2;Temp;Humidity;BMP_temperature;BMP_pressure;BME280_temperature;BME280_humidity;BME280_pressure;Samples;Min_cycle;Max_cycle;Signal;HPM_P1;HPM_P2
2021/09/19 00:01:29;;;;;;;0.93;0.60;;;7.50;1.40;;;8.93;100.00;95186.06;648330;212;31628;-72
2021/09/19 00:04:10;;;;;;;1.20;0.40;;;7.50;1.40;;;8.90;100.00;95180.96;649054;216;31493;-72
2021/09/19 00:06:52;;;;;;;0.70;0.50;;;7.50;1.40;;;8.97;100.00;95181.08;645580;216;31465;-72
2021/09/19 00:09:33;;;;;;;0.50;0.43;;;7.50;1.40;;;8.90;100.00;95180.64;646243;216;31624;-74
2021/09/19 00:12:15;;;;;;;1.00;0.50;;;7.50;1.40;;;8.84;100.00;95177.34;645950;213;31513;-73
2021/09/19 00:14:57;;;;;;;0.60;0.53;;;7.30;1.40;;;8.81;100.00;95172.22;645683;212;31638;-72
2021/09/19 00:17:39;;;;;;;1.10;0.70;;;7.30;1.40;;;8.82;100.00;95167.29;646135;215;33345;-72
2021/09/19 00:20:20;;;;;;;0.90;0.80;;;7.40;1.40;;;8.80;100.00;95172.52;645854;212;31494;-73
2021/09/19 00:23:02;;;;;;;0.50;0.35;;;7.30;1.40;;;8.76;100.00;95169.98;645269;216;31532;-72
2021/09/19 00:25:44;;;;;;;1.35;0.50;;;7.20;1.40;;;8.69;100.00;95166.16;645655;212;31512;-72
2021/09/19 00:28:25;;;;;;;0.80;0.50;;;7.20;1.40;;;8.67;100.00;95157.18;645315;216;31539;-73
2021/09/19 00:31:10;;;;;;;0.80;0.50;;;7.20;1.40;;;8.60;100.00;95162.59;647546;212;31510;-71
2021/09/19 00:35:52;;;;;;;0.80;0.80;;;7.20;1.40;;;8.54;100.00;95162.52;647560;212;42372;-73
2021/09/19 00:38:33;;;;;;;0.70;0.57;;;7.20;1.40;;;8.58;100.00;95154.95;646132;216;31615;-73
2021/09/19 00:41:15;;;;;;;0.80;0.50;;;7.10;1.40;;;8.53;100.00;95153.15;647222;212;31580;-74
2021/09/19 00:43:57;;;;;;;0.60;0.57;;;7.00;1.40;;;8.48;100.00;95149.92;646109;216;31606;-75
2021/09/19 00:46:38;;;;;;;0.53;0.30;;;7.00;1.40;;;8.49;100.00;95148.78;647152;216;31639;-72
2021/09/19 00:49:20;;;;;;;0.80;0.80;;;7.10;1.40;;;8.56;100.00;95151.64;646294;216;32118;-75
2021/09/19 00:52:02;;;;;;;2.10;0.90;;;7.10;1.40;;;8.46;100.00;95147.12;646938;216;31496;-72
2021/09/19 00:54:43;;;;;;;0.90;0.60;;;7.00;1.40;;;8.23;100.00;95147.41;645259;212;31555;-73
2021/09/19 00:57:25;;;;;;;0.70;0.70;;;6.70;1.40;;;8.06;100.00;95150.05;646861;216;31501;-75
2021/09/19 01:00:07;;;;;;;0.93;0.90;;;6.70;1.40;;;7.98;100.00;95144.29;617653;222;31896;-75
2021/09/19 01:02:51;;;;;;;0.97;0.50;;;6.60;1.40;;;7.93;100.00;95143.23;646720;216;31602;-73
2021/09/19 01:05:31;;;;;;;0.60;0.40;;;6.60;1.40;;;7.92;100.00;95146.70;646757;216;31549;-73
2021/09/19 01:08:13;;;;;;;0.50;0.40;;;6.60;1.40;;;8.03;100.00;95144.02;618002;222;31862;-72
2021/09/19 01:10:54;;;;;;;0.90;0.80;;;6.80;1.40;;;8.11;100.00;95141.23;646034;216;31571;-71
2021/09/19 01:13:36;;;;;;;0.50;0.50;;;6.80;1.40;;;8.18;100.00;95140.13;645924;216;31652;-72
2021/09/19 01:16:18;;;;;;;1.35;1.25;;;6.90;1.40;;;8.09;100.00;95135.42;646020;216;31518;-71
2021/09/19 01:18:59;;;;;;;1.03;1.00;;;6.70;1.40;;;7.99;100.00;95137.02;647766;212;31685;-70
2021/09/19 01:21:41;;;;;;;1.10;0.40;;;6.70;1.40;;;7.95;100.00;95138.72;648284;216;31535;-74
2021/09/19 01:24:25;;;;;;;0.70;0.63;;;6.50;1.40;;;7.87;100.00;95137.59;645778;216;31908;-70
2021/09/19 01:27:04;;;;;;;0.70;0.70;;;6.50;1.40;;;7.83;100.00;95134.59;645802;216;31845;-73
2021/09/19 01:29:49;;;;;;;1.42;1.33;;;6.50;1.40;;;7.90;100.00;95135.72;646045;216;31530;-73
2021/09/19 01:32:31;;;;;;;1.50;0.70;;;6.50;1.40;;;7.86;100.00;95134.28;648084;213;31507;-72
2021/09/19 01:35:51;;;;;;;0.85;0.85;;;6.50;1.40;;;7.85;100.00;95129.33;646397;216;31585;-72
2021/09/19 01:38:33;;;;;;;0.40;0.40;;;6.40;1.40;;;7.81;100.00;95127.17;646785;216;31555;-72
2021/09/19 01:41:20;;;;;;;0.80;0.50;;;6.40;1.40;;;7.88;100.00;95124.86;640741;216;31636;-72
2021/09/19 01:44:01;;;;;;;1.60;0.40;;;6.60;1.40;;;7.82;100.00;95125.06;644705;212;31532;-72
2021/09/19 01:46:43;;;;;;;0.70;0.60;;;6.50;1.40;;;7.75;100.00;95118.34;629147;221;31778;-72
2021/09/19 01:49:25;;;;;;;1.20;0.40;;;6.30;1.40;;;7.71;100.00;95116.59;646706;216;31641;-74
2021/09/19 01:52:06;;;;;;;1.30;0.40;;;6.30;1.40;;;7.66;100.00;95113.63;647286;212;31466;-73
2021/09/19 01:54:51;;;;;;;3.12;1.10;;;6.30;1.40;;;7.67;100.00;95109.25;646805;212;31502;-71
2021/09/19 01:57:33;;;;;;;0.50;0.50;;;6.20;1.40;;;7.71;100.00;95104.48;619505;223;32011;-73
2021/09/19 02:00:15;;;;;;;1.90;0.80;;;6.20;1.40;;;7.66;100.00;95098.36;647078;212;31480;-72
2021/09/19 02:02:59;;;;;;;1.10;0.60;;;6.20;1.40;;;7.63;100.00;95093.89;620058;226;32996;-87
2021/09/19 02:05:43;;;;;;;1.00;0.90;;;6.30;1.40;;;7.59;100.00;95097.91;620139;222;32671;-73
2021/09/19 02:08:25;;;;;;;0.60;0.40;;;6.20;1.40;;;7.61;100.00;95093.14;647025;215;31704;-71
2021/09/19 02:11:07;;;;;;;0.53;0.50;;;6.20;1.40;;;7.61;100.00;95092.81;645491;216;31673;-72
2021/09/19 02:13:48;;;;;;;1.10;0.70;;;6.10;1.40;;;7.49;100.00;95090.08;645390;212;31476;-74
2021/09/19 02:16:30;;;;;;;1.00;0.60;;;6.00;1.40;;;7.39;100.00;95093.02;645376;216;31602;-71
2021/09/19 02:19:12;;;;;;;1.17;0.80;;;6.00;1.40;;;7.36;100.00;95091.94;645754;216;31480;-73
2021/09/19 02:21:56;;;;;;;1.15;0.50;;;6.00;1.40;;;7.33;100.00;95095.59;647448;212;31541;-72
2021/09/19 02:24:39;;;;;;;1.27;0.80;;;6.00;1.40;;;7.25;100.00;95091.13;647236;216;31682;-74
2021/09/19 02:27:20;;;;;;;1.30;0.90;;;5.90;1.40;;;7.26;100.00;95090.41;645360;216;31524;-74
2021/09/19 02:30:01;;;;;;;0.90;0.90;;;6.00;1.40;;;7.24;100.00;95090.03;645606;212;32434;-74
2021/09/19 02:32:43;;;;;;;1.20;0.80;;;6.00;1.40;;;7.24;100.00;95085.45;646418;216;32106;-74
2021/09/19 02:35:50;;;;;;;1.60;0.50;;;6.00;1.40;;;7.28;100.00;95079.48;646440;216;31631;-74
2021/09/19 02:38:32;;;;;;;1.37;0.60;;;6.10;1.40;;;7.29;100.00;95071.50;646929;216;31546;-75
2021/09/19 02:41:14;;;;;;;0.80;0.60;;;6.10;1.40;;;7.25;100.00;95068.16;641611;216;31662;-74
2021/09/19 02:43:55;;;;;;;1.50;0.60;;;6.00;1.40;;;7.29;100.00;95075.96;645217;212;42124;-74
2021/09/19 02:46:37;;;;;;;1.00;0.87;;;6.10;1.40;;;7.28;100.00;95073.66;645606;212;31554;-73
2021/09/19 02:49:19;;;;;;;1.05;0.95;;;6.10;1.40;;;7.26;100.00;95066.58;646560;212;31498;-74
2021/09/19 02:52:00;;;;;;;1.10;0.95;;;6.00;1.40;;;7.30;100.00;95053.09;647959;216;31525;-73
2021/09/19 02:54:42;;;;;;;1.00;0.70;;;6.00;1.40;;;7.32;100.00;95050.20;620359;226;32005;-73
2021/09/19 02:57:24;;;;;;;0.98;0.70;;;6.00;1.40;;;7.27;100.00;95046.93;645342;212;32020;-73
2021/09/19 03:00:08;;;;;;;1.90;0.60;;;6.00;1.40;;;7.31;100.00;95047.36;619834;226;32434;-72
2021/09/19 03:02:54;;;;;;;0.80;0.80;;;6.00;1.40;;;7.33;100.00;95049.55;646775;216;31584;-72
2021/09/19 03:05:34;;;;;;;0.95;0.85;;;6.00;1.40;;;7.35;100.00;95038.61;647052;216;31654;-72
2021/09/19 03:08:16;;;;;;;1.10;0.90;;;5.90;1.40;;;7.38;100.00;95035.16;647123;216;31678;-74
2021/09/19 03:11:01;;;;;;;1.08;0.60;;;6.00;1.40;;;7.50;100.00;95032.68;648464;216;31602;-71
2021/09/19 03:13:42;;;;;;;0.60;0.60;;;6.10;1.40;;;7.49;100.00;95030.87;645903;216;31514;-72
2021/09/19 03:16:24;;;;;;;0.53;0.53;;;6.00;1.40;;;7.39;100.00;95026.84;646331;216;31517;-72
2021/09/19 03:19:09;;;;;;;2.90;1.00;;;5.90;1.40;;;7.37;100.00;95022.89;646225;212;31924;-72
2021/09/19 03:21:50;;;;;;;2.30;0.70;;;5.90;1.40;;;7.18;100.00;95023.48;646930;212;31707;-72
2021/09/19 03:24:32;;;;;;;1.45;1.15;;;5.80;1.40;;;7.29;100.00;95021.61;647250;216;31501;-73
2021/09/19 03:27:14;;;;;;;1.00;1.00;;;5.90;1.40;;;7.27;100.00;95013.55;647524;212;31544;-73
2021/09/19 03:29:55;;;;;;;1.10;0.80;;;5.90;1.40;;;7.28;100.00;95009.82;646233;212;31482;-71
2021/09/19 03:32:37;;;;;;;1.05;0.82;;;5.90;1.40;;;7.33;100.00;95003.97;647995;216;32190;-72
2021/09/19 03:35:55;;;;;;;0.70;0.50;;;6.00;1.40;;;7.45;100.00;95000.72;646223;216;31792;-74
2021/09/19 03:38:36;;;;;;;1.23;0.80;;;6.20;1.40;;;7.60;100.00;95000.89;646354;216;31561;-72
2021/09/19 03:41:18;;;;;;;1.30;0.63;;;6.20;1.40;;;7.60;100.00;95002.72;641805;216;31713;-74
2021/09/19 03:44:00;;;;;;;2.60;1.05;;;6.20;1.40;;;7.53;100.00;95002.14;645729;216;32100;-74
2021/09/19 03:46:41;;;;;;;1.10;0.60;;;6.20;1.40;;;7.57;100.00;95004.30;645576;216;32768;-72
2021/09/19 03:49:24;;;;;;;2.08;1.50;;;6.30;1.40;;;7.50;100.00;95005.02;646063;216;32085;-74
2021/09/19 03:52:05;;;;;;;1.40;1.10;;;6.20;1.40;;;7.29;100.00;95010.78;646149;216;31650;-74
2021/09/19 03:54:46;;;;;;;1.50;0.90;;;6.10;1.40;;;7.12;100.00;95011.18;647112;216;32218;-70
2021/09/19 03:57:31;;;;;;;1.20;0.60;;;6.00;1.40;;;7.17;100.00;95009.96;646503;212;31716;-71
2021/09/19 04:00:15;;;;;;;1.02;0.90;;;6.10;1.40;;;7.22;100.00;95005.95;616573;226;31914;-87
2021/09/19 04:02:59;;;;;;;1.85;1.75;;;6.20;1.40;;;7.44;100.00;95008.71;645496;212;42393;-74
2021/09/19 04:05:41;;;;;;;1.87;0.98;;;6.40;1.40;;;7.68;100.00;95006.98;646849;216;31602;-72
2021/09/19 04:08:25;;;;;;;1.60;1.50;;;6.50;1.40;;;7.85;100.00;95005.95;646115;216;31554;-71
2021/09/19 04:11:07;;;;;;;1.60;0.80;;;6.50;1.40;;;7.91;100.00;95002.08;647621;216;31535;-72
2021/09/19 04:13:48;;;;;;;0.80;0.80;;;6.60;1.40;;;8.14;100.00;95005.31;619248;226;32073;-72
2021/09/19 04:16:30;;;;;;;1.00;0.90;;;6.80;1.40;;;8.27;100.00;95004.43;645501;212;31583;-72
2021/09/19 04:19:12;;;;;;;0.83;0.83;;;6.90;1.40;;;8.38;100.00;95005.52;646140;216;32078;-72
2021/09/19 04:21:54;;;;;;;1.27;1.12;;;6.90;1.40;;;8.43;100.00;95007.23;646409;216;31680;-72
2021/09/19 04:24:35;;;;;;;0.60;0.57;;;6.90;1.40;;;8.47;100.00;95008.39;648348;216;31548;-71
2021/09/19 04:27:17;;;;;;;0.70;0.70;;;6.90;1.40;;;8.53;100.00;95011.47;646077;216;31563;-73
2021/09/19 04:29:59;;;;;;;1.67;1.15;;;6.90;1.40;;;8.58;100.00;95010.67;644793;212;31907;-71
2021/09/19 04:32:40;;;;;;;1.60;1.40;;;7.00;1.40;;;8.66;100.00;95006.57;646482;216;31554;-73
2021/09/19 04:35:54;;;;;;;1.10;1.00;;;7.00;1.40;;;8.65;100.00;95007.40;646312;216;31588;-72
2021/09/19 04:38:36;;;;;;;1.50;1.40;;;7.10;1.40;;;8.69;100.00;95011.79;645887;212;31527;-72
2021/09/19 04:41:17;;;;;;;1.10;1.00;;;7.10;1.40;;;8.77;100.00;95011.66;641759;216;31736;-72
2021/09/19 04:43:59;;;;;;;1.00;0.60;;;7.10;1.40;;;8.85;100.00;95011.00;647002;216;31575;-72
2021/09/19 04:46:41;;;;;;;1.80;1.03;;;7.20;1.40;;;8.90;100.00;95012.29;619122;226;31906;-73
2021/09/19 04:49:22;;;;;;;1.67;1.50;;;7.20;1.40;;;8.95;100.00;95011.22;645355;216;31574;-72
2021/09/19 04:52:04;;;;;;;2.50;2.30;;;7.30;1.40;;;9.02;100.00;95018.41;645525;212;31566;-72
2021/09/19 04:54:46;;;;;;;2.27;0.90;;;7.40;1.40;;;9.12;100.00;95016.43;618593;222;31901;-72
2021/09/19 04:57:27;;;;;;;0.60;0.50;;;7.40;1.40;;;9.13;100.00;95015.00;648468;216;31539;-72
2021/09/19 05:00:10;;;;;;;1.27;1.03;;;7.40;1.40;;;9.17;100.00;95019.34;646872;216;31565;-71
2021/09/19 05:02:52;;;;;;;1.40;1.30;;;7.40;1.40;;;-143.44;100.00;122422.95;644877;212;31709;-72
2021/09/19 05:05:36;;;;;;;0.80;0.73;;;7.50;1.40;;;;;;645127;212;32157;-72
2021/09/19 05:08:17;;;;;;;1.50;0.57;;;7.50;1.40;;;;;;645438;216;31596;-73
2021/09/19 05:12:16;;;;;;;1.30;1.20;;;7.50;1.40;;;;;;646846;212;31526;-74
2021/09/19 05:14:57;;;;;;;1.30;1.20;;;7.50;1.40;;;;;;647257;213;32164;-72
2021/09/19 05:17:38;;;;;;;9.60;1.10;;;7.60;1.40;;;;;;645422;212;32153;-73
2021/09/19 05:20:19;;;;;;;1.57;1.13;;;7.70;1.40;;;;;;646120;212;32230;-72
2021/09/19 05:23:00;;;;;;;1.80;1.20;;;7.80;1.40;;;;;;644514;214;31590;-72
2021/09/19 05:25:44;;;;;;;1.65;1.30;;;7.80;1.40;;;;;;646585;212;31738;-73
2021/09/19 05:28:25;;;;;;;2.00;1.00;;;7.80;1.40;;;;;;645813;212;31566;-73
2021/09/19 05:31:06;;;;;;;1.03;0.93;;;7.80;1.40;;;;;;647866;212;31537;-71
2021/09/19 05:35:51;;;;;;;1.58;1.08;;;8.10;1.40;;;9.89;100.00;95042.74;645977;216;31597;-72
2021/09/19 05:38:33;;;;;;;11.30;0.90;;;8.10;1.40;;;10.04;100.00;95046.39;645595;212;31658;-71
2021/09/19 05:41:14;;;;;;;0.98;0.98;;;8.20;1.40;;;9.63;100.00;95044.20;641557;216;31610;-71
2021/09/19 05:44:00;;;;;;;1.60;1.20;;;7.90;1.40;;;9.58;100.00;95043.75;646502;216;31653;-72
2021/09/19 05:49:15;;;;;;;1.10;0.90;;;8.30;1.40;;;10.39;100.00;95035.86;645737;216;31522;-71
2021/09/19 05:54:31;;;;;;;1.60;0.97;;;8.50;1.40;;;10.63;100.00;95032.64;645235;212;42212;-70
2021/09/19 05:57:13;;;;;;;1.70;1.30;;;8.60;1.40;;;10.82;100.00;95027.48;647874;216;31494;-71
2021/09/19 05:59:54;;;;;;;2.03;1.93;;;8.70;1.40;;;10.52;100.00;95026.19;646735;212;31669;-72
2021/09/19 06:02:36;;;;;;;1.25;1.15;;;8.70;1.40;;;10.80;100.00;95015.94;618968;223;32101;-71
2021/09/19 06:05:21;;;;;;;1.60;1.10;;;8.90;1.40;;;10.89;100.00;95007.55;645804;216;31604;-72
2021/09/19 06:08:03;;;;;;;0.90;0.80;;;8.90;1.40;;;10.85;100.00;95012.34;645417;212;31539;-72
2021/09/19 06:10:44;;;;;;;0.60;0.60;;;8.90;1.40;;;10.94;100.00;95010.48;646076;212;31547;-71
2021/09/19 06:13:29;;;;;;;2.70;1.50;;;9.00;1.40;;;11.01;100.00;95009.27;646917;216;31873;-72
2021/09/19 06:16:11;;;;;;;4.40;1.90;;;9.20;1.40;;;11.43;100.00;95014.66;646499;212;31666;-71
2021/09/19 06:18:55;;;;;;;1.37;1.27;;;9.50;1.40;;;11.49;100.00;95009.16;647581;212;31987;-72
2021/09/19 06:21:37;;;;;;;1.33;1.23;;;9.50;1.40;;;11.26;100.00;95010.80;647255;216;31548;-72
2021/09/19 06:26:53;;;;;;;1.40;1.30;;;9.40;1.40;;;11.24;100.00;95020.73;646563;212;31508;-72
2021/09/19 06:29:35;;;;;;;1.03;0.93;;;9.30;1.40;;;11.46;100.00;95020.29;646785;216;42163;-72
2021/09/19 06:32:17;;;;;;;5.50;0.90;;;9.50;1.40;;;11.75;100.00;95020.02;646658;212;31565;-72
2021/09/19 06:35:52;;;;;;;1.37;1.10;;;9.80;1.40;;;11.98;100.00;95013.59;645809;212;31585;-73
2021/09/19 06:38:33;;;;;;;1.50;1.00;;;9.80;1.40;;;11.93;100.00;95009.14;645467;212;42180;-72
2021/09/19 06:41:15;;;;;;;0.80;0.70;;;9.90;1.40;;;12.31;100.00;95007.56;639850;212;31724;-72
2021/09/19 06:43:57;;;;;;;2.60;1.40;;;10.00;1.40;;;12.37;100.00;95009.84;646444;212;31795;-72
2021/09/19 06:46:38;;;;;;;1.90;1.70;;;10.10;1.40;;;12.65;100.00;95007.10;646693;212;31564;-72
2021/09/19 06:49:20;;;;;;;1.23;1.13;;;10.30;1.40;;;13.05;100.00;95011.55;646552;216;31770;-72
2021/09/19 06:52:02;;;;;;;1.90;1.57;;;10.60;1.40;;;13.05;100.00;95010.48;646631;216;31566;-72
2021/09/19 06:54:43;;;;;;;1.23;1.17;;;10.70;1.40;;;13.30;100.00;95003.67;646025;216;31537;-73
2021/09/19 06:57:25;;;;;;;1.60;1.50;;;10.90;1.40;;;13.75;100.00;95001.25;646557;216;31753;-72
2021/09/19 07:00:08;;;;;;;1.60;0.90;;;11.10;1.40;;;13.49;100.00;95005.48;647423;212;31590;-71
2021/09/19 07:02:49;;;;;;;1.60;1.20;;;11.20;1.40;;;13.24;100.00;95004.73;646324;212;35353;-71
2021/09/19 07:05:31;;;;;;;1.27;1.17;;;11.20;1.40;;;13.82;100.00;95011.45;646763;216;42169;-71
2021/09/19 07:08:16;;;;;;;1.03;0.93;;;11.40;1.40;;;14.32;100.00;95011.20;646134;212;31754;-72
2021/09/19 07:10:57;;;;;;;1.83;1.60;;;11.40;1.40;;;14.21;100.00;95018.17;631145;217;32382;-71
2021/09/19 07:13:42;;;;;;;1.33;1.23;;;11.30;1.40;;;13.41;100.00;95016.19;618931;226;37488;-72
2021/09/19 07:16:30;;;;;;;1.62;1.52;;;11.00;1.40;;;13.43;100.00;95014.83;647571;216;32122;-74
2021/09/19 07:19:18;;;;;;;2.47;2.22;;;11.00;1.40;;;13.53;100.00;95014.43;616068;226;32136;-72
2021/09/19 07:21:59;;;;;;;2.05;1.85;;;11.10;1.40;;;13.82;100.00;95006.72;645785;213;31710;-71
2021/09/19 07:24:41;;;;;;;2.05;1.85;;;11.20;1.40;;;13.56;100.00;95009.77;648358;216;32808;-72
2021/09/19 07:27:23;;;;;;;1.62;1.37;;;11.20;1.40;;;13.23;100.00;95001.57;645484;216;31600;-72
2021/09/19 07:30:09;;;;;;;2.62;1.92;;;11.20;1.40;;;13.72;100.00;94998.92;646251;216;31527;-72
2021/09/19 07:32:51;;;;;;;1.98;1.60;;;11.70;1.40;;;14.39;100.00;95000.02;646450;216;39187;-71
2021/09/19 07:35:54;;;;;;;1.90;1.60;;;11.90;1.40;;;13.55;100.00;95013.76;647338;216;32296;-71
2021/09/19 07:38:36;;;;;;;2.45;2.03;;;11.60;1.40;;;13.49;100.00;95023.52;646286;216;40479;-72
2021/09/19 07:41:18;;;;;;;2.53;1.77;;;11.50;1.40;;;13.37;100.00;95021.30;640779;216;42361;-71
2021/09/19 07:44:03;;;;;;;3.70;1.55;;;11.40;1.40;;;13.76;100.00;95021.98;644838;212;31735;-70
2021/09/19 07:46:45;;;;;;;2.50;1.95;;;11.50;1.40;;;13.95;100.00;95020.14;647362;212;42169;-70
2021/09/19 07:49:30;;;;;;;3.72;1.90;;;11.60;1.40;;;14.32;100.00;95022.23;646529;212;42174;-72
2021/09/19 07:52:15;;;;;;;1.80;1.45;;;11.90;1.40;;;14.45;100.00;95023.83;646010;212;31938;-71
2021/09/19 07:55:01;;;;;;;1.35;1.25;;;12.20;1.40;;;14.91;100.00;95011.92;647073;212;42193;-73
2021/09/19 07:57:48;;;;;;;1.87;1.67;;;12.40;1.40;;;14.69;100.00;95013.19;646758;216;31551;-71
2021/09/19 08:00:30;;;;;;;2.25;2.05;;;12.40;1.40;;;14.79;100.00;95016.91;647051;212;31596;-71
2021/09/19 08:03:15;;;;;;;2.60;2.40;;;12.70;1.40;;;15.43;100.00;95020.23;646379;216;42183;-72
2021/09/19 08:05:56;;;;;;;2.25;2.05;;;13.10;1.40;;;16.08;100.00;95020.85;645817;212;31536;-72
2021/09/19 08:08:38;;;;;;;3.28;2.67;;;13.90;1.40;;;16.44;100.00;95024.87;646433;212;32196;-74
2021/09/19 08:11:22;;;;;;;4.85;2.90;;;14.20;1.40;;;16.77;100.00;95024.27;645350;212;31765;-72
2021/09/19 08:14:06;;;;;;;3.37;2.67;;;14.70;1.40;;;17.62;100.00;95020.41;646822;212;31531;-72
2021/09/19 08:16:47;;;;;;;2.67;2.47;;;14.90;1.40;;;17.07;100.00;95022.53;645762;212;31764;-72
2021/09/19 08:19:29;;;;;;;2.83;2.62;;;14.70;1.40;;;16.33;100.00;95016.41;619064;222;31908;-72
2021/09/19 08:22:11;;;;;;;3.28;2.80;;;14.30;1.40;;;16.23;100.00;95015.39;647201;212;31552;-72
2021/09/19 08:24:52;;;;;;;3.30;3.00;;;14.10;1.40;;;16.26;100.00;95015.77;619107;222;31927;-71
2021/09/19 08:27:36;;;;;;;2.62;2.42;;;14.10;1.40;;;16.02;100.00;95015.50;642442;217;31525;-72
2021/09/19 08:30:16;;;;;;;3.37;2.45;;;14.20;1.40;;;15.99;100.00;95021.81;645184;212;31575;-72
2021/09/19 08:32:58;;;;;;;3.72;2.90;;;14.50;1.40;;;16.51;100.00;95016.02;647872;216;31530;-71
2021/09/19 08:35:51;;;;;;;2.87;2.30;;;14.80;1.40;;;16.68;100.00;95017.37;646904;212;42211;-72
2021/09/19 08:38:33;;;;;;;3.00;2.80;;;15.00;1.40;;;17.02;100.00;95011.23;647677;216;31537;-72
2021/09/19 08:41:15;;;;;;;5.28;3.00;;;15.50;1.40;;;16.94;100.00;95009.84;641584;212;31750;-72
2021/09/19 08:43:57;;;;;;;3.15;2.40;;;15.60;1.40;;;17.25;100.00;95007.22;646339;216;31740;-71
2021/09/19 08:46:39;;;;;;;4.07;2.75;;;15.80;1.40;;;17.78;99.80;95012.35;647622;216;31571;-72
2021/09/19 08:49:20;;;;;;;3.60;2.53;;;16.00;1.40;;;17.03;100.00;95011.44;647067;216;31895;-72
2021/09/19 08:52:02;;;;;;;3.40;2.53;;;15.80;1.40;;;18.05;98.59;95016.84;645927;212;31767;-72
2021/09/19 08:54:44;;;;;;;3.33;2.30;;;16.80;1.40;;;-143.44;100.00;122422.95;646084;216;31654;-71
2021/09/19 08:57:25;;;;;;;4.25;3.33;;;20.10;1.40;;;;;;619228;222;32708;-72
2021/09/19 09:00:07;;;;;;;3.40;2.50;;;22.50;1.40;;;;;;645218;212;31595;-73
2021/09/19 09:02:50;;;;;;;3.00;2.70;;;23.30;1.40;;;;;;645344;216;32187;-72
2021/09/19 09:05:37;;;;;;;3.78;2.95;;;24.70;1.40;;;;;;647438;212;32311;-72
2021/09/19 09:08:15;;;;;;;6.50;2.90;;;25.00;1.40;;;;;;619455;226;32605;-72
2021/09/19 09:10:57;;;;;;;4.95;3.70;;;23.80;1.40;;;;;;646279;216;32744;-73
2021/09/19 09:13:38;;;;;;;2.95;2.75;;;24.10;1.40;;;;;;620215;226;32514;-72
2021/09/19 09:16:22;;;;;;;3.25;2.85;;;25.50;1.40;;;;;;645652;216;31564;-72
2021/09/19 09:19:03;;;;;;;3.78;3.22;;;24.80;1.40;;;;;;646318;212;31711;-72
2021/09/19 09:21:44;;;;;;;3.62;3.12;;;25.40;1.40;;;;;;646183;212;31682;-73
2021/09/19 09:24:25;;;;;;;4.40;3.50;;;25.10;1.40;;;;;;648023;216;31552;-73
2021/09/19 09:27:27;;;;;;;4.10;3.67;;;24.60;1.40;;;;;;647003;216;31579;-72
2021/09/19 09:30:08;;;;;;;4.90;3.72;;;24.30;1.40;;;;;;646631;212;31705;-72
2021/09/19 09:32:55;;;;;;;4.40;4.00;;;24.90;1.40;;;;;;618818;226;43235;-72
2021/09/19 09:35:51;;;;;;;5.15;4.15;;;24.50;1.40;;;27.14;48.15;95026.53;647041;216;32211;-72
2021/09/19 09:38:33;;;;;;;4.55;4.00;;;24.80;1.40;;;27.65;47.67;95026.57;646574;216;32127;-76
2021/09/19 09:41:15;;;;;;;4.55;4.15;;;24.10;1.40;;;26.72;47.95;95024.30;640612;216;31737;-72
2021/09/19 09:43:59;;;;;;;5.15;3.92;;;24.20;1.40;;;26.09;49.46;95020.18;646637;212;31670;-74
2021/09/19 09:46:48;;;;;;;4.80;4.12;;;23.80;1.40;;;28.20;47.18;95022.62;645592;216;31694;-72
2021/09/19 09:49:42;;;;;;;5.87;4.95;;;25.00;1.40;;;28.23;43.70;95023.30;646567;216;32146;-72
2021/09/19 09:52:25;;;;;;;5.05;4.55;;;25.10;1.40;;;29.34;45.22;95018.92;647498;212;32264;-73
2021/09/19 09:55:10;;;;;;;4.80;4.30;;;25.70;1.40;;;28.56;43.18;95018.77;647520;212;31631;-73
2021/09/19 10:00:29;;;;;;;5.68;4.43;;;25.10;1.40;;;27.64;45.98;95015.91;646052;212;31827;-72
2021/09/19 10:03:14;;;;;;;4.80;4.30;;;24.80;1.40;;;28.08;48.19;95018.30;645961;212;31597;-72
2021/09/19 10:05:56;;;;;;;5.65;5.10;;;23.20;1.40;;;27.13;46.44;95017.69;646779;212;32208;-72
2021/09/19 10:08:37;;;;;;;5.20;4.70;;;24.10;1.40;;;27.60;46.31;95015.02;646958;216;31800;-72
2021/09/19 10:11:19;;;;;;;5.28;4.32;;;25.30;1.40;;;30.36;45.67;95007.16;645383;212;31964;-73
2021/09/19 10:14:01;;;;;;;6.10;4.75;;;26.80;1.40;;;29.56;43.08;95013.80;646925;216;31581;-72
2021/09/19 10:16:43;;;;;;;5.87;5.10;;;26.10;1.40;;;29.24;42.08;95011.41;646547;216;31963;-72
2021/09/19 10:19:24;;;;;;;4.97;4.47;;;25.00;1.40;;;29.43;44.70;95014.65;645700;216;31603;-72
2021/09/19 10:22:09;;;;;;;5.75;4.40;;;25.50;1.40;;;30.02;44.95;95020.93;646556;216;31632;-72
2021/09/19 10:24:50;;;;;;;5.05;4.55;;;26.00;1.40;;;29.97;40.58;95019.07;645604;212;31806;-73
2021/09/19 10:27:32;;;;;;;5.60;4.97;;;25.90;1.40;;;30.94;40.33;95008.97;645567;216;32377;-73
2021/09/19 10:30:14;;;;;;;4.65;4.25;;;26.40;1.40;;;30.37;40.05;95005.25;646550;216;32123;-73
2021/09/19 10:33:00;;;;;;;5.00;3.77;;;26.90;1.40;;;33.93;37.66;95006.54;639654;217;31748;-73
2021/09/19 10:35:52;;;;;;;4.75;4.35;;;28.10;1.40;;;35.00;35.29;95007.94;618988;226;32082;-72
2021/09/19 10:38:35;;;;;;;5.10;4.60;;;28.80;1.40;;;33.56;34.64;95013.44;647316;216;32205;-73
2021/09/19 10:41:20;;;;;;;4.65;3.90;;;27.70;1.40;;;33.46;34.80;95011.32;640765;216;42673;-73
2021/09/19 10:44:01;;;;;;;4.62;4.22;;;26.50;1.40;;;32.05;37.63;95012.53;644919;212;31614;-73
2021/09/19 10:46:48;;;;;;;4.20;3.80;;;25.90;1.40;;;33.13;34.57;95013.59;645922;212;31590;-73
2021/09/19 10:49:25;;;;;;;4.00;3.70;;;26.10;1.40;;;31.60;37.96;95012.53;618466;226;31958;-72
2021/09/19 10:52:07;;;;;;;4.30;3.87;;;23.50;1.40;;;28.29;41.73;95008.08;644652;212;42380;-72
2021/09/19 10:54:49;;;;;;;3.95;3.10;;;21.30;1.40;;;;;;647264;216;31725;-73
2021/09/19 10:57:32;;;;;;;4.10;3.45;;;24.10;1.40;;;;;;646896;216;31691;-72
2021/09/19 11:00:18;;;;;;;4.27;3.87;;;24.40;1.40;;;;;;619664;222;33974;-89
2021/09/19 11:03:06;;;;;;;5.33;4.30;;;23.20;1.40;;;;;;618740;222;32357;-72
2021/09/19 11:05:48;;;;;;;3.72;3.33;;;24.60;1.40;;;;;;647111;212;42309;-72
2021/09/19 11:08:37;;;;;;;3.75;3.20;;;26.60;1.40;;;;;;645804;216;31840;-72
2021/09/19 11:11:19;;;;;;;3.42;3.05;;;25.80;1.40;;;;;;646007;216;31782;-72
2021/09/19 11:14:00;;;;;;;4.20;3.40;;;23.40;1.40;;;;;;646318;216;31601;-72
2021/09/19 11:16:41;;;;;;;3.33;2.70;;;25.20;1.40;;;;;;646134;216;31575;-73
2021/09/19 11:19:22;;;;;;;3.30;3.00;;;22.80;1.40;;;;;;646973;212;31592;-73
2021/09/19 11:22:03;;;;;;;3.70;3.30;;;23.20;1.40;;;;;;646531;216;31585;-73
2021/09/19 11:24:44;;;;;;;4.05;3.45;;;21.90;1.40;;;;;;646351;216;31542;-72
2021/09/19 11:27:25;;;;;;;3.47;3.17;;;20.50;1.40;;;;;;646270;212;31563;-72
2021/09/19 11:30:07;;;;;;;3.60;3.20;;;19.50;1.40;;;;;;646369;216;31541;-71
2021/09/19 11:32:48;;;;;;;3.40;3.05;;;19.80;1.40;;;;;;646511;212;42205;-72
2021/09/19 11:35:51;;;;;;;3.17;2.50;;;21.10;1.40;;;23.98;52.61;95008.03;646807;212;31561;-72
2021/09/19 11:38:39;;;;;;;4.05;3.03;;;20.10;1.40;;;22.47;57.23;95011.41;646649;216;31566;-72
2021/09/19 11:41:21;;;;;;;2.70;2.40;;;19.30;1.40;;;23.16;53.91;95009.30;646051;212;31588;-73
2021/09/19 11:44:03;;;;;;;3.87;2.78;;;19.50;1.40;;;22.60;56.88;95014.89;645626;216;31969;-71
2021/09/19 11:46:45;;;;;;;3.62;2.97;;;20.30;1.40;;;24.50;53.16;95009.23;647430;212;31563;-72
2021/09/19 11:49:27;;;;;;;3.47;3.17;;;22.70;1.40;;;26.00;48.45;95008.30;619473;226;31998;-72
2021/09/19 11:52:14;;;;;;;3.20;2.90;;;22.90;1.40;;;24.46;49.77;95009.68;646689;216;31984;-75
2021/09/19 11:55:02;;;;;;;3.08;2.72;;;21.40;1.40;;;25.51;46.54;95008.34;618173;222;32903;-72
2021/09/19 11:57:44;;;;;;;3.20;2.42;;;21.40;1.40;;;25.75;47.43;95006.93;647807;213;31865;-71
2021/09/19 12:00:30;;;;;;;2.90;2.60;;;21.30;1.40;;;24.67;51.14;95005.21;645566;216;31531;-72
2021/09/19 12:03:17;;;;;;;2.53;2.33;;;20.90;1.40;;;23.94;52.11;95006.42;645878;216;42209;-73
2021/09/19 12:06:05;;;;;;;2.60;2.40;;;20.10;1.40;;;22.98;55.80;95011.50;618870;226;32256;-72
2021/09/19 12:08:47;;;;;;;2.08;1.85;;;20.10;1.40;;;23.77;52.46;95011.19;647790;216;31660;-72
2021/09/19 12:11:37;;;;;;;2.50;2.30;;;20.60;1.40;;;25.46;50.38;95003.95;646742;216;31543;-71
2021/09/19 12:17:06;;;;;;;2.70;2.28;;;20.70;1.40;;;-143.44;100.00;122422.95;645877;216;31588;-73